createdAt,value
2019-02-08T00:00:13.333Z,1.21
2019-02-08T00:02:40.389Z,1.35
2019-02-08T00:05:08.327Z,1.29
2019-02-08T00:07:34.891Z,1.35
2019-02-08T00:10:01.852Z,1.40
2019-02-08T00:12:28.455Z,1.41
2019-02-08T00:14:55.003Z,1.37
2019-02-08T00:17:21.650Z,1.39
2019-02-08T00:19:48.320Z,1.46
2019-02-08T00:22:14.879Z,1.47
2019-02-08T00:24:41.484Z,1.43
2019-02-08T00:27:08.060Z,1.42
2019-02-08T00:29:34.784Z,1.45
2019-02-08T00:32:01.438Z,1.43
2019-02-08T00:34:28.036Z,1.51
2019-02-08T00:36:54.711Z,1.58
2019-02-08T00:39:21.295Z,1.57
2019-02-08T00:41:48.298Z,1.65
2019-02-08T00:44:14.853Z,1.64
2019-02-08T00:46:41.440Z,1.64
2019-02-08T00:49:08.064Z,1.59
2019-02-08T00:51:34.654Z,1.59
2019-02-08T00:54:01.206Z,1.48
2019-02-08T00:56:27.823Z,1.44
2019-02-08T00:58:54.368Z,1.55
2019-02-08T01:01:21.018Z,1.65
2019-02-08T01:03:47.663Z,1.58
2019-02-08T01:06:14.214Z,1.61
2019-02-08T01:08:42.218Z,1.65
2019-02-08T01:11:08.909Z,1.75
2019-02-08T01:13:35.514Z,1.66
2019-02-08T01:16:02.911Z,1.68
2019-02-08T01:18:29.531Z,1.79
2019-02-08T01:20:56.086Z,1.83
2019-02-08T01:23:22.953Z,1.76
2019-02-08T01:25:49.568Z,1.84
2019-02-08T01:28:16.185Z,1.86
2019-02-08T01:30:42.814Z,1.85
2019-02-08T01:33:09.521Z,1.87
2019-02-08T01:35:36.130Z,1.73
2019-02-08T01:38:02.881Z,1.80
2019-02-08T01:40:34.698Z,1.97
2019-02-08T01:43:01.365Z,1.98
2019-02-08T01:45:30.954Z,1.96
2019-02-08T01:47:57.842Z,1.96
2019-02-08T01:50:27.303Z,1.96
2019-02-08T01:52:53.862Z,2.04
2019-02-08T01:55:21.014Z,2.02
2019-02-08T01:57:49.254Z,2.03
2019-02-08T02:00:20.827Z,2.04
2019-02-08T02:02:47.411Z,2.10
2019-02-08T02:05:14.869Z,2.14
2019-02-08T02:07:41.540Z,2.13
2019-02-08T02:10:13.958Z,2.12
2019-02-08T02:12:40.519Z,2.10
2019-02-08T02:15:07.456Z,2.10
2019-02-08T02:17:34.115Z,2.23
2019-02-08T02:20:00.749Z,2.19
2019-02-08T02:22:27.341Z,2.15
2019-02-08T02:24:53.929Z,2.22
2019-02-08T02:27:20.487Z,2.24
2019-02-08T02:29:47.058Z,2.29
2019-02-08T02:32:13.684Z,2.33
2019-02-08T02:34:40.235Z,2.33
2019-02-08T02:37:07.249Z,2.25
2019-02-08T02:39:34.014Z,2.33
2019-02-08T02:42:00.609Z,2.36
2019-02-08T02:44:27.211Z,2.38
2019-02-08T02:46:53.843Z,2.34
2019-02-08T02:49:20.483Z,2.36
2019-02-08T02:51:47.018Z,2.35
2019-02-08T02:54:14.679Z,2.38
2019-02-08T02:56:41.342Z,2.43
2019-02-08T02:59:08.097Z,2.38
2019-02-08T03:01:34.653Z,2.43
2019-02-08T03:04:02.689Z,2.49
2019-02-08T03:06:29.374Z,2.59
2019-02-08T03:08:55.943Z,2.58
2019-02-08T03:11:22.535Z,2.53
2019-02-08T03:13:49.074Z,2.53
2019-02-08T03:16:15.745Z,2.56
2019-02-08T03:18:42.545Z,2.51
2019-02-08T03:21:10.614Z,2.51
2019-02-08T03:23:37.231Z,2.47
2019-02-08T03:26:03.822Z,2.59
2019-02-08T03:28:30.457Z,2.63
2019-02-08T03:30:58.591Z,2.67
2019-02-08T03:33:25.183Z,2.69
2019-02-08T03:35:54.898Z,2.58
2019-02-08T03:38:21.508Z,2.61
2019-02-08T03:40:48.088Z,2.57
2019-02-08T03:43:17.510Z,2.65
2019-02-08T03:45:46.173Z,2.65
2019-02-08T03:48:12.879Z,2.56
2019-02-08T03:50:39.565Z,2.51
2019-02-08T03:53:07.379Z,2.51
2019-02-08T03:55:33.978Z,2.48
2019-02-08T03:58:00.623Z,2.59
2019-02-08T04:00:33.308Z,2.50
2019-02-08T04:02:59.920Z,2.53
2019-02-08T04:05:26.524Z,2.49
2019-02-08T04:07:53.784Z,2.46
2019-02-08T04:10:20.526Z,2.43
2019-02-08T04:12:47.141Z,2.47
2019-02-08T04:15:19.048Z,2.46
2019-02-08T04:17:45.724Z,2.45
2019-02-08T04:20:15.625Z,2.51
2019-02-08T04:22:42.285Z,2.51
2019-02-08T04:25:12.960Z,2.52
2019-02-08T04:27:39.759Z,2.50
2019-02-08T04:30:12.140Z,2.44
2019-02-08T04:32:38.706Z,2.44
2019-02-08T04:35:05.324Z,2.29
2019-02-08T04:37:31.846Z,2.28
2019-02-08T04:39:58.406Z,2.26
2019-02-08T04:42:25.033Z,2.25
2019-02-08T04:44:51.629Z,2.13
2019-02-08T04:47:18.233Z,2.18
2019-02-08T04:49:45.008Z,2.17
2019-02-08T04:52:11.579Z,2.21
2019-02-08T04:54:38.681Z,2.17
2019-02-08T04:57:05.501Z,2.07
2019-02-08T04:59:32.236Z,2.08
2019-02-08T05:01:58.834Z,2.11
2019-02-08T05:04:25.508Z,2.16
2019-02-08T05:06:52.171Z,2.11
2019-02-08T05:09:18.770Z,2.11
2019-02-08T05:11:45.363Z,2.12
2019-02-08T05:14:12.024Z,2.16
2019-02-08T05:16:38.650Z,2.13
2019-02-08T05:19:05.179Z,2.15
2019-02-08T05:21:31.795Z,2.11
2019-02-08T05:23:58.376Z,2.05
2019-02-08T05:26:24.992Z,2.02
2019-02-08T05:28:51.817Z,2.10
2019-02-08T05:31:18.629Z,2.06
2019-02-08T05:33:45.322Z,2.07
2019-02-08T05:36:11.915Z,2.00
2019-02-08T05:38:39.784Z,2.06
2019-02-08T05:41:06.370Z,2.06
2019-02-08T05:43:34.528Z,2.05
2019-02-08T05:46:01.080Z,2.09
2019-02-08T05:48:27.632Z,1.99
2019-02-08T05:50:54.257Z,2.06
2019-02-08T05:53:20.891Z,2.07
2019-02-08T05:55:48.549Z,2.02
2019-02-08T05:58:15.141Z,2.01
2019-02-08T06:00:46.547Z,2.01
2019-02-08T06:03:13.179Z,2.00
2019-02-08T06:05:39.938Z,1.98
2019-02-08T06:08:07.136Z,2.10
2019-02-08T06:10:34.911Z,2.11
2019-02-08T06:13:01.445Z,2.19
2019-02-08T06:15:28.046Z,2.19
2019-02-08T06:17:54.599Z,2.27
2019-02-08T06:20:24.489Z,2.38
2019-02-08T06:22:51.028Z,2.46
2019-02-08T06:25:20.088Z,2.41
2019-02-08T06:27:46.989Z,2.40
2019-02-08T06:30:18.022Z,2.53
2019-02-08T06:32:44.838Z,2.43
2019-02-08T06:35:12.848Z,2.48
2019-02-08T06:37:44.478Z,2.51
2019-02-08T06:40:13.757Z,2.54
2019-02-08T06:42:40.352Z,2.50
2019-02-08T06:45:12.510Z,2.58
2019-02-08T06:47:39.179Z,2.63
2019-02-08T06:50:11.314Z,2.67
2019-02-08T06:52:37.875Z,2.70
2019-02-08T06:55:10.943Z,2.68
2019-02-08T06:57:37.186Z,2.67
2019-02-08T07:00:10.302Z,2.77
2019-02-08T07:02:38.774Z,2.75
2019-02-08T07:05:10.354Z,2.82
2019-02-08T07:07:38.819Z,2.83
2019-02-08T07:10:11.556Z,2.87
2019-02-08T07:12:40.015Z,2.92
2019-02-08T07:15:10.296Z,3.03
2019-02-08T07:17:38.821Z,2.96
2019-02-08T07:20:11.027Z,3.05
2019-02-08T07:22:39.552Z,3.02
2019-02-08T07:25:09.949Z,3.08
2019-02-08T07:27:38.468Z,3.15
2019-02-08T07:30:12.692Z,3.18
2019-02-08T07:32:42.408Z,3.15
2019-02-08T07:35:11.800Z,3.27
2019-02-08T07:37:40.267Z,3.18
2019-02-08T07:40:14.488Z,3.26
2019-02-08T07:42:41.039Z,3.23
2019-02-08T07:45:09.607Z,3.33
2019-02-08T07:47:38.183Z,3.36
2019-02-08T07:50:11.954Z,3.43
2019-02-08T07:52:40.474Z,3.36
2019-02-08T07:55:12.705Z,3.43
2019-02-08T07:57:41.211Z,3.51
2019-02-08T08:00:15.168Z,3.55
2019-02-08T08:02:43.628Z,3.54
2019-02-08T08:05:12.321Z,3.55
2019-02-08T08:07:41.140Z,3.49
2019-02-08T08:10:14.643Z,3.48
2019-02-08T08:12:43.544Z,3.53
2019-02-08T08:15:16.353Z,3.54
2019-02-08T08:17:45.018Z,3.57
2019-02-08T08:20:18.553Z,3.54
2019-02-08T08:22:47.290Z,3.54
2019-02-08T08:25:15.830Z,3.62
2019-02-08T08:27:44.917Z,3.59
2019-02-08T08:30:19.124Z,3.69
2019-02-08T08:32:50.020Z,3.75
2019-02-08T08:35:22.391Z,3.83
2019-02-08T08:37:54.790Z,3.92
2019-02-08T08:40:27.073Z,4.04
2019-02-08T08:42:59.374Z,4.12
2019-02-08T08:45:31.693Z,4.01
2019-02-08T08:48:04.004Z,4.19
2019-02-08T08:50:34.444Z,4.19
2019-02-08T08:53:06.879Z,4.31
2019-02-08T08:55:42.271Z,4.46
2019-02-08T08:58:13.448Z,4.53
2019-02-08T09:00:45.795Z,4.57
2019-02-08T09:03:18.054Z,4.74
2019-02-08T09:05:52.310Z,4.75
2019-02-08T09:08:24.710Z,4.61
2019-02-08T09:10:57.177Z,4.64
2019-02-08T09:13:27.582Z,4.68
2019-02-08T09:15:59.887Z,4.46
2019-02-08T09:18:30.334Z,4.48
2019-02-08T09:21:02.706Z,4.52
2019-02-08T09:23:35.072Z,4.57
2019-02-08T09:26:07.412Z,4.70
2019-02-08T09:28:40.950Z,4.46
2019-02-08T09:31:11.373Z,4.63
2019-02-08T09:33:43.659Z,4.57
2019-02-08T09:36:16.064Z,4.83
2019-02-08T09:38:48.421Z,4.69
2019-02-08T09:41:18.860Z,4.95
2019-02-08T09:43:49.304Z,5.16
2019-02-08T09:46:21.685Z,5.30
2019-02-08T09:48:53.987Z,5.26
2019-02-08T09:51:26.355Z,5.36
2019-02-08T09:53:58.678Z,5.51
2019-02-08T09:56:31.146Z,5.59
2019-02-08T09:59:03.446Z,5.63
2019-02-08T10:01:33.922Z,5.56
2019-02-08T10:04:06.391Z,5.73
2019-02-08T10:06:38.836Z,5.79
2019-02-08T10:09:11.101Z,5.58
2019-02-08T10:11:43.573Z,5.37
2019-02-08T10:14:15.938Z,5.31
2019-02-08T10:16:52.031Z,5.66
2019-02-08T10:19:24.291Z,5.95
2019-02-08T10:21:56.628Z,6.06
2019-02-08T10:24:28.970Z,6.16
2019-02-08T10:27:01.352Z,5.76
2019-02-08T10:29:33.677Z,6.03
2019-02-08T10:32:07.145Z,6.18
2019-02-08T10:34:39.465Z,6.17
2019-02-08T10:37:11.877Z,6.35
2019-02-08T10:39:44.162Z,6.26
2019-02-08T10:42:16.533Z,6.42
2019-02-08T10:44:48.865Z,6.29
2019-02-08T10:47:21.263Z,6.31
2019-02-08T10:49:53.585Z,6.39
2019-02-08T10:52:25.877Z,6.34
2019-02-08T10:54:58.150Z,6.39
2019-02-08T10:57:30.513Z,6.09
2019-02-08T11:00:02.781Z,6.04
2019-02-08T11:02:36.561Z,5.79
2019-02-08T11:05:08.977Z,6.12
2019-02-08T11:07:41.341Z,6.26
2019-02-08T11:10:13.618Z,6.48
2019-02-08T11:12:46.033Z,6.65
2019-02-08T11:15:18.357Z,6.62
2019-02-08T11:17:52.498Z,6.60
2019-02-08T11:20:19.127Z,6.46
2019-02-08T11:22:45.794Z,6.73
2019-02-08T11:25:12.379Z,6.72
2019-02-08T11:27:38.958Z,6.86
2019-02-08T11:30:11.199Z,6.79
2019-02-08T11:32:43.199Z,7.02
2019-02-08T11:35:08.716Z,6.85
2019-02-08T11:37:35.338Z,6.88
2019-02-08T11:40:07.648Z,7.08
2019-02-08T11:42:34.196Z,7.08
2019-02-08T11:45:00.775Z,6.68
2019-02-08T11:47:27.332Z,6.87
2019-02-08T11:49:53.878Z,7.04
2019-02-08T11:52:20.467Z,7.07
2019-02-08T11:54:47.022Z,7.11
2019-02-08T11:57:13.611Z,6.95
2019-02-08T11:59:40.167Z,7.01
2019-02-08T12:02:06.941Z,6.85
2019-02-08T12:04:33.616Z,7.00
2019-02-08T12:07:00.217Z,7.25
2019-02-08T12:09:26.771Z,7.20
2019-02-08T12:11:53.340Z,7.22
2019-02-08T12:14:19.956Z,7.02
2019-02-08T12:16:46.512Z,7.19
2019-02-08T12:19:13.074Z,7.08
2019-02-08T12:21:39.864Z,7.29
2019-02-08T12:24:06.755Z,7.22
2019-02-08T12:26:37.867Z,7.33
2019-02-08T12:29:01.891Z,7.09
2019-02-08T12:31:28.795Z,7.17
2019-02-08T12:33:55.388Z,7.30
2019-02-08T12:36:21.983Z,7.47
2019-02-08T12:38:49.453Z,7.35
2019-02-08T12:41:16.004Z,7.39
2019-02-08T12:43:42.631Z,7.36
2019-02-08T12:46:09.250Z,7.46
2019-02-08T12:48:36.528Z,7.51
2019-02-08T12:51:03.573Z,7.43
2019-02-08T12:53:30.166Z,7.47
2019-02-08T12:55:56.774Z,7.42
2019-02-08T12:58:23.467Z,7.49
2019-02-08T13:00:50.061Z,7.44
2019-02-08T13:03:16.720Z,7.55
2019-02-08T13:05:43.386Z,7.46
2019-02-08T13:08:10.049Z,7.59
2019-02-08T13:10:36.739Z,7.63
2019-02-08T13:13:03.380Z,7.31
2019-02-08T13:15:29.982Z,7.38
2019-02-08T13:17:56.612Z,7.52
2019-02-08T13:20:23.654Z,7.52
2019-02-08T13:22:51.899Z,7.55
2019-02-08T13:25:18.739Z,7.45
2019-02-08T13:27:47.191Z,7.44
2019-02-08T13:30:19.002Z,7.51
2019-02-08T13:32:45.572Z,7.50
2019-02-08T13:35:12.116Z,7.53
2019-02-08T13:37:38.699Z,7.60
2019-02-08T13:40:11.104Z,7.70
2019-02-08T13:42:37.848Z,7.81
2019-02-08T13:45:09.999Z,7.59
2019-02-08T13:47:37.387Z,7.66
2019-02-08T13:50:09.997Z,7.76
2019-02-08T13:52:36.662Z,7.67
2019-02-08T13:55:07.991Z,7.65
2019-02-08T13:57:34.588Z,7.60
2019-02-08T14:00:01.173Z,7.64
2019-02-08T14:02:27.735Z,7.63
2019-02-08T14:04:54.284Z,7.86
2019-02-08T14:07:20.867Z,7.85
2019-02-08T14:09:47.425Z,7.76
2019-02-08T14:12:14.044Z,7.85
2019-02-08T14:14:40.638Z,7.65
2019-02-08T14:17:07.380Z,7.70
2019-02-08T14:19:33.951Z,7.57
2019-02-08T14:22:00.610Z,7.30
2019-02-08T14:24:27.193Z,7.32
2019-02-08T14:26:53.760Z,7.37
2019-02-08T14:29:20.350Z,7.38
2019-02-08T14:31:46.875Z,7.43
2019-02-08T14:34:13.420Z,7.50
2019-02-08T14:36:40.014Z,7.30
2019-02-08T14:39:08.243Z,7.48
2019-02-08T14:41:35.084Z,7.48
2019-02-08T14:44:01.651Z,7.28
2019-02-08T14:46:28.181Z,7.17
2019-02-08T14:48:57.205Z,7.13
2019-02-08T14:51:23.235Z,7.11
2019-02-08T14:53:49.855Z,6.93
2019-02-08T14:56:16.907Z,6.89
2019-02-08T14:58:43.591Z,6.83
2019-02-08T15:01:10.163Z,6.89
2019-02-08T15:03:36.773Z,6.83
2019-02-08T15:06:03.374Z,6.70
2019-02-08T15:08:31.625Z,6.54
2019-02-08T15:10:58.165Z,6.42
2019-02-08T15:13:24.743Z,6.34
2019-02-08T15:15:51.318Z,6.25
2019-02-08T15:18:18.790Z,6.15
2019-02-08T15:20:45.742Z,5.98
2019-02-08T15:23:12.378Z,6.10
2019-02-08T15:25:38.925Z,5.99
2019-02-08T15:28:05.562Z,5.94
2019-02-08T15:30:36.108Z,5.87
2019-02-08T15:33:04.241Z,5.77
2019-02-08T15:35:30.871Z,5.50
2019-02-08T15:37:57.793Z,5.47
2019-02-08T15:40:29.631Z,5.31
2019-02-08T15:42:57.318Z,5.33
2019-02-08T15:45:24.895Z,5.28
2019-02-08T15:47:51.408Z,5.30
2019-02-08T15:50:18.067Z,5.15
2019-02-08T15:52:44.734Z,5.07
2019-02-08T15:55:17.107Z,5.06
2019-02-08T15:57:43.854Z,5.01
2019-02-08T16:00:15.967Z,4.94
2019-02-08T16:02:42.621Z,4.86
2019-02-08T16:05:14.403Z,4.78
2019-02-08T16:07:41.029Z,4.73
2019-02-08T16:10:08.920Z,4.69
2019-02-08T16:12:35.479Z,4.51
2019-02-08T16:15:07.534Z,4.38
2019-02-08T16:17:34.246Z,4.21
2019-02-08T16:20:00.906Z,3.92
2019-02-08T16:22:27.431Z,3.91
2019-02-08T16:24:53.982Z,3.86
2019-02-08T16:27:20.599Z,3.76
2019-02-08T16:29:47.135Z,3.60
2019-02-08T16:32:13.775Z,3.53
2019-02-08T16:34:40.348Z,3.39
2019-02-08T16:37:06.934Z,3.42
2019-02-08T16:39:33.579Z,3.27
2019-02-08T16:42:00.206Z,3.35
2019-02-08T16:44:27.879Z,3.22
2019-02-08T16:46:54.494Z,2.85
2019-02-08T16:49:21.035Z,2.69
2019-02-08T16:51:47.920Z,2.51
2019-02-08T16:54:14.495Z,2.42
2019-02-08T16:56:41.100Z,2.35
2019-02-08T16:59:07.949Z,2.49
2019-02-08T17:01:37.627Z,2.59
2019-02-08T17:04:05.093Z,2.59
2019-02-08T17:06:32.754Z,2.56
2019-02-08T17:08:59.565Z,2.49
2019-02-08T17:11:26.227Z,2.45
2019-02-08T17:13:52.808Z,2.40
2019-02-08T17:16:19.520Z,2.35
2019-02-08T17:18:46.130Z,2.34
2019-02-08T17:21:13.363Z,2.32
2019-02-08T17:23:40.126Z,2.18
2019-02-08T17:26:06.815Z,2.16
2019-02-08T17:28:33.363Z,1.98
2019-02-08T17:30:59.965Z,1.82
2019-02-08T17:33:26.598Z,1.67
2019-02-08T17:35:53.240Z,1.55
2019-02-08T17:38:21.749Z,1.50
2019-02-08T17:40:48.545Z,1.63
2019-02-08T17:43:15.632Z,1.73
2019-02-08T17:45:42.289Z,1.72
2019-02-08T17:48:13.150Z,1.46
2019-02-08T17:50:39.839Z,1.43
2019-02-08T17:53:06.600Z,1.52
2019-02-08T17:55:33.286Z,1.62
2019-02-08T17:58:03.745Z,1.63
2019-02-08T18:00:36.939Z,1.58
2019-02-08T18:03:03.693Z,1.48
2019-02-08T18:05:30.407Z,1.37
2019-02-08T18:07:57.102Z,1.31
2019-02-08T18:10:25.944Z,1.10
2019-02-08T18:12:52.679Z,1.12
2019-02-08T18:15:22.083Z,1.04
2019-02-08T18:17:48.706Z,0.92
2019-02-08T18:20:21.054Z,0.96
2019-02-08T18:22:47.876Z,0.96
2019-02-08T18:25:14.863Z,0.81
2019-02-08T18:27:42.506Z,0.75
2019-02-08T18:30:14.456Z,0.59
2019-02-08T18:32:41.223Z,0.57
2019-02-08T18:35:07.932Z,0.46
2019-02-08T18:37:35.398Z,0.46
2019-02-08T18:40:06.762Z,0.49
2019-02-08T18:42:33.341Z,0.40
2019-02-08T18:45:01.015Z,0.42
2019-02-08T18:47:27.836Z,0.37
2019-02-08T18:49:54.418Z,0.28
2019-02-08T18:52:22.175Z,0.33
2019-02-08T18:54:49.171Z,0.17
2019-02-08T18:57:15.757Z,0.16
2019-02-08T18:59:42.376Z,0.12
2019-02-08T19:02:12.040Z,0.23
2019-02-08T19:04:39.226Z,0.12
2019-02-08T19:07:06.102Z,0.13
2019-02-08T19:09:34.676Z,0.19
2019-02-08T19:12:01.562Z,0.18
2019-02-08T19:14:28.926Z,0.16
2019-02-08T19:16:55.721Z,0.24
2019-02-08T19:19:22.314Z,0.25
2019-02-08T19:21:48.912Z,0.31
2019-02-08T19:24:15.509Z,0.14
2019-02-08T19:26:42.114Z,0.17
2019-02-08T19:29:08.712Z,0.16
2019-02-08T19:31:35.262Z,0.34
2019-02-08T19:34:01.924Z,0.11
2019-02-08T19:37:25.302Z,0.42
2019-02-08T19:39:52.114Z,0.16
2019-02-08T19:42:18.862Z,0.23
2019-02-08T19:44:45.638Z,0.29
2019-02-08T19:47:12.300Z,0.25
2019-02-08T19:49:38.858Z,0.45
2019-02-08T19:52:05.419Z,0.48
2019-02-08T19:54:32.063Z,0.28
2019-02-08T19:57:01.707Z,0.30
2019-02-08T19:59:28.338Z,0.44
2019-02-08T20:01:54.926Z,0.47
2019-02-08T20:04:22.625Z,0.33
2019-02-08T20:06:49.353Z,0.35
2019-02-08T20:09:16.041Z,0.36
2019-02-08T20:11:43.060Z,0.18
2019-02-08T20:14:09.731Z,0.08
2019-02-08T20:16:36.322Z,0.00
2019-02-08T20:19:03.020Z,0.23
2019-02-08T20:21:30.139Z,0.23
2019-02-08T20:23:56.897Z,0.13
2019-02-08T20:26:23.814Z,0.30
2019-02-08T20:28:52.511Z,0.25
2019-02-08T20:31:20.699Z,0.24
2019-02-08T20:33:47.481Z,0.22
2019-02-08T20:36:14.634Z,0.22
2019-02-08T20:38:42.527Z,0.44
2019-02-08T20:41:09.266Z,0.24
2019-02-08T20:43:40.091Z,0.21
2019-02-08T20:46:07.239Z,0.24
2019-02-08T20:48:34.071Z,0.20
2019-02-08T20:51:00.791Z,0.15
2019-02-08T20:53:29.268Z,0.14
2019-02-08T20:55:56.117Z,0.26
2019-02-08T20:58:23.888Z,0.36
2019-02-08T21:00:50.590Z,0.33
2019-02-08T21:03:17.471Z,0.31
2019-02-08T21:05:47.289Z,0.22
2019-02-08T21:08:14.468Z,0.25
2019-02-08T21:10:41.348Z,0.25
2019-02-08T21:13:08.662Z,0.22
2019-02-08T21:15:35.368Z,0.22
2019-02-08T21:18:03.576Z,0.22
2019-02-08T21:20:30.175Z,0.24
2019-02-08T21:22:57.122Z,0.28
2019-02-08T21:25:28.961Z,0.26
2019-02-08T21:27:55.539Z,0.24
2019-02-08T21:30:22.177Z,0.32
2019-02-08T21:32:48.792Z,0.25
2019-02-08T21:35:18.004Z,0.45
2019-02-08T21:37:44.830Z,0.53
2019-02-08T21:40:16.908Z,0.50
2019-02-08T21:42:43.466Z,0.55
2019-02-08T21:45:15.798Z,0.54
2019-02-08T21:47:42.431Z,0.52
2019-02-08T21:50:14.232Z,0.51
2019-02-08T21:52:40.819Z,0.61
2019-02-08T21:55:11.404Z,0.45
2019-02-08T21:57:38.005Z,0.56
2019-02-08T22:00:10.467Z,0.59
2019-02-08T22:02:37.131Z,0.62
2019-02-08T22:05:09.639Z,0.44
2019-02-08T22:07:36.266Z,0.53
2019-02-08T22:10:08.178Z,0.54
2019-02-08T22:12:34.723Z,0.53
2019-02-08T22:15:01.484Z,0.50
2019-02-08T22:17:29.904Z,0.32
2019-02-08T22:19:56.541Z,0.36
2019-02-08T22:22:23.291Z,0.44
2019-02-08T22:24:49.914Z,0.36
2019-02-08T22:27:16.567Z,0.39
2019-02-08T22:29:43.253Z,0.34
2019-02-08T22:32:09.849Z,0.33
2019-02-08T22:34:37.466Z,0.36
2019-02-08T22:37:04.060Z,0.31
2019-02-08T22:39:30.640Z,0.29
2019-02-08T22:41:57.286Z,0.31
2019-02-08T22:44:23.822Z,0.32
2019-02-08T22:46:53.125Z,0.42
2019-02-08T22:49:20.808Z,0.51
2019-02-08T22:51:47.386Z,0.42
2019-02-08T22:54:14.174Z,0.43
2019-02-08T22:56:40.855Z,0.38
2019-02-08T22:59:07.419Z,0.33
2019-02-08T23:01:35.672Z,0.22
2019-02-08T23:04:03.034Z,0.28
2019-02-08T23:06:29.606Z,0.53
2019-02-08T23:08:56.311Z,0.50
2019-02-08T23:11:22.966Z,0.53
2019-02-08T23:13:49.516Z,0.51
2019-02-08T23:16:16.596Z,0.42
2019-02-08T23:18:43.447Z,0.43
2019-02-08T23:21:10.047Z,0.46
2019-02-08T23:23:36.900Z,0.54
2019-02-08T23:26:03.759Z,0.57
2019-02-08T23:28:30.364Z,0.71
2019-02-08T23:30:56.921Z,0.69
2019-02-08T23:33:23.487Z,0.71
2019-02-08T23:35:50.072Z,0.63
2019-02-08T23:38:16.730Z,0.65
2019-02-08T23:40:44.775Z,0.73
2019-02-08T23:43:11.483Z,0.72
2019-02-08T23:45:38.171Z,0.84
2019-02-08T23:48:04.706Z,0.84
2019-02-08T23:50:31.324Z,0.81
2019-02-08T23:52:57.916Z,0.89
2019-02-08T23:55:26.315Z,1.00
2019-02-08T23:57:52.992Z,1.01
